Randolph Air Force Base
KRND : now visible

Airfield :











YOU CAN JOIN US ON...

 
LOGIN :

Register | Disclaimer

   EN    FR    IT 

 









Legend :    VFR   Marginal VFR   IFR   Intensive IFR   Very Intensive IFR
Visi :
Ceiling :
>= 8 km
>= 3000ft
5 to 8 km
1000 to 3000 ft
1500m to 5 km
500 to 1000 ft
800 to 1500m
200 to 500 ft
< 800m
< 200 ft
Symbols :   Thunderstorms  Fog  Heavy snow  Heavy precipitations  Wind > 20 kt







- Airport Elevation : 761 ft


KRND - Randolph Air Force Base

CURRENT METAR :
  • 201156Z 33003KT 10SM SCT020 03/02 A2998 RMK AO2A SLP156 70010 T00280024 10063 20025 52013

EXPIRED METARs :
  • 201056Z AUTO 00000KT 8SM CLR 04/03 A2996 RMK AO2 SLP149 T00350029
  • 200956Z AUTO 00000KT 10SM CLR 05/04 A2995 RMK AO2 SLP145 T00540039

TAF TAF KRND
Valid from the 20 at 10:00 until the 21 at 16:00 UTC


201000Z 2010/2116 33006KT 9999 SCT040 QNH2994INS
BECMG 2018/2019 30012KT 9999 SKC QNH2993INS
BECMG 2022/2023 VRB06KT 9999 SKC QNH2990INS
BECMG 2106/2107 09006KT 9999 FEW250 QNH2993INS TX18/2021Z TN04/2013Z
KZHU FIR / North America



MET'MAP, your aeronautical weather chart ! - Copyright ORBIFLY December 2007 - Disclaimer

ORBIFLY MET'MAP TEAM :

Programming & Development : Alexandra Zaïnal
Concept & Development : Baudouin d'Aumeries
Co-Development & Prog : Marc-Olivier Méhu
Technical & hardware support : Manuel Goepfert

Contact : metmap@orbifly.com




SOURCES & CREDITS :

   NOAA       Earth
Advisory